Time;durP1;ratioP1;P1;durP2;ratioP2;P2;SDS_P1;SDS_P2;PMS_P1;PMS_P2;Temp;Humidity;BMP_temperature;BMP_pressure;BME280_temperature;BME280_humidity;BME280_pressure;Samples;Min_cycle;Max_cycle;Signal;HPM_P1;HPM_P2
2022/08/25 00:02:03;;;;;;;6.20;3.92;;;;;;;20.60;60.42;101282.88;5007819;28;20049;-79
2022/08/25 00:04:30;;;;;;;6.93;3.97;;;;;;;20.60;60.75;101280.22;5038599;28;20131;-78
2022/08/25 00:06:57;;;;;;;3.97;3.53;;;;;;;20.56;60.56;101275.06;5011229;28;20034;-79
2022/08/25 00:09:27;;;;;;;7.93;4.38;;;;;;;20.53;61.09;101285.84;5010302;28;20058;-79
2022/08/25 00:11:55;;;;;;;5.18;3.88;;;;;;;20.48;61.04;101283.34;4997739;28;20037;-79
2022/08/25 00:14:26;;;;;;;10.93;3.75;;;;;;;20.44;61.52;101285.31;5028690;28;20038;-79
2022/08/25 00:16:53;;;;;;;4.38;3.72;;;;;;;20.39;61.84;101287.28;5000591;28;20614;-79
2022/08/25 00:19:25;;;;;;;6.93;4.05;;;;;;;20.36;61.82;101290.03;5020518;28;20074;-80
2022/08/25 00:21:52;;;;;;;6.15;4.00;;;;;;;20.33;61.95;101287.50;5007017;28;20149;-81
2022/08/25 00:24:22;;;;;;;4.30;3.90;;;;;;;20.28;62.06;101292.16;5001266;28;20215;-79
2022/08/25 00:26:52;;;;;;;4.07;3.63;;;;;;;20.24;62.92;101285.22;5018542;28;20050;-79
2022/08/25 00:29:21;;;;;;;7.43;3.97;;;;;;;20.23;62.84;101281.69;4987780;28;20054;-81
2022/08/25 00:31:48;;;;;;;5.63;3.40;;;;;;;20.19;62.79;101288.03;5002538;28;20042;-81
2022/08/25 00:34:20;;;;;;;7.28;4.88;;;;;;;20.16;63.24;101286.38;4981394;28;20080;-82
2022/08/25 00:36:47;;;;;;;5.72;4.55;;;;;;;20.15;63.02;101284.66;5002186;28;21076;-79
2022/08/25 00:39:14;;;;;;;5.15;3.70;;;;;;;20.14;63.26;101288.25;4981298;28;20053;-79
2022/08/25 00:41:43;;;;;;;9.45;4.70;;;;;;;20.13;63.43;101283.00;4997606;28;20030;-82
2022/08/25 00:44:13;;;;;;;7.47;3.85;;;;;;;20.12;63.32;101283.91;4999918;28;20068;-80
2022/08/25 00:46:51;;;;;;;5.43;3.72;;;;;;;20.06;63.70;101282.34;4985589;28;20069;-80
2022/08/25 00:49:30;;;;;;;5.03;4.03;;;;;;;20.06;64.01;101284.16;4999261;28;20057;-80
2022/08/25 00:52:08;;;;;;;6.65;4.32;;;;;;;20.03;64.47;101281.63;5001996;28;20045;-81
2022/08/25 00:55:05;;;;;;;4.10;3.70;;;;;;;19.98;64.40;101274.66;5001803;28;20057;-80
2022/08/25 00:57:47;;;;;;;5.00;3.75;;;;;;;19.95;64.83;101282.75;4979884;28;20141;-79
2022/08/25 01:00:21;;;;;;;6.15;3.95;;;;;;;19.90;64.64;101283.88;4991134;28;20361;-80
2022/08/25 01:02:47;;;;;;;7.50;4.55;;;;;;;19.90;65.01;101281.22;4997330;28;20065;-78
2022/08/25 01:05:14;;;;;;;5.60;4.20;;;;;;;19.89;65.02;101272.34;4996078;28;20050;-80
2022/08/25 01:07:43;;;;;;;8.13;4.53;;;;;;;19.89;65.12;101274.16;4998122;28;20120;-80
2022/08/25 01:10:12;;;;;;;6.45;4.68;;;;;;;19.86;65.32;101272.50;5001329;28;20041;-79
2022/08/25 01:12:40;;;;;;;5.97;5.32;;;;;;;19.84;65.88;101271.66;5003407;28;20089;-81
2022/08/25 01:15:10;;;;;;;5.35;3.90;;;;;;;19.84;65.80;101269.00;5001592;28;20052;-81
2022/08/25 01:17:55;;;;;;;4.10;3.35;;;;;;;19.84;66.02;101266.34;4999869;28;20045;-80
2022/08/25 01:20:26;;;;;;;5.20;4.10;;;;;;;19.81;66.13;101266.44;5017373;28;20058;-78
2022/08/25 01:22:53;;;;;;;6.03;4.93;;;;;;;19.77;66.49;101265.69;5009502;28;20572;-80
2022/08/25 01:26:04;;;;;;;7.45;5.13;;;;;;;19.76;67.41;101274.56;4985977;28;20160;-80
2022/08/25 01:28:32;;;;;;;6.18;4.88;;;;;;;19.72;67.52;101269.47;5006853;28;20052;-82
2022/08/25 01:30:58;;;;;;;5.35;4.25;;;;;;;19.67;67.49;101265.19;5008005;28;20548;-82
2022/08/25 01:33:25;;;;;;;8.43;5.55;;;;;;;19.63;68.43;101274.19;4993242;28;20069;-83
2022/08/25 01:35:52;;;;;;;7.72;5.00;;;;;;;19.61;68.76;101264.56;5005677;28;20054;-82
2022/08/25 01:38:20;;;;;;;5.47;4.93;;;;;;;19.58;69.03;101273.50;5008376;28;20113;-82
2022/08/25 01:40:47;;;;;;;6.47;4.85;;;;;;;19.55;69.27;101270.09;4997139;28;20104;-81
2022/08/25 01:43:36;;;;;;;10.35;5.75;;;;;;;19.50;69.88;101271.13;5006847;28;20050;-82
2022/08/25 01:46:03;;;;;;;9.30;5.25;;;;;;;19.44;69.93;101266.03;5003756;28;20057;-82
2022/08/25 01:48:31;;;;;;;8.48;5.68;;;;;;;19.41;70.24;101270.56;5009616;28;20057;-81
2022/08/25 01:50:59;;;;;;;7.30;4.82;;;;;;;19.37;70.57;101268.97;5006530;28;20072;-81
2022/08/25 01:53:32;;;;;;;8.43;6.00;;;;;;;19.31;71.39;101270.06;5000910;28;20634;-80
2022/08/25 01:56:01;;;;;;;7.37;5.63;;;;;;;19.27;71.22;101271.94;4983665;28;20042;-81
2022/08/25 01:58:31;;;;;;;7.30;4.57;;;;;;;19.23;71.22;101270.31;5002290;28;20034;-80
2022/08/25 02:01:03;;;;;;;7.15;6.07;;;;;;;19.20;72.28;101272.22;5005414;28;20745;-81
2022/08/25 02:03:30;;;;;;;8.73;5.70;;;;;;;19.15;71.94;101267.06;4989231;28;20552;-80
2022/08/25 02:06:00;;;;;;;5.47;4.95;;;;;;;19.12;72.01;101268.03;4984203;28;20083;-79
2022/08/25 02:08:26;;;;;;;5.57;4.97;;;;;;;19.07;72.71;101269.97;4984318;28;20053;-80
2022/08/25 02:10:55;;;;;;;8.60;6.25;;;;;;;19.04;73.61;101261.28;4998861;28;20056;-80
2022/08/25 02:13:24;;;;;;;7.50;6.05;;;;;;;19.02;73.73;101266.66;5008954;28;20042;-81
2022/08/25 02:15:55;;;;;;;9.48;5.63;;;;;;;19.00;73.72;101265.81;4996626;28;20061;-80
2022/08/25 02:18:22;;;;;;;7.70;5.95;;;;;;;18.98;73.98;101264.97;4999610;28;20559;-81
2022/08/25 02:20:49;;;;;;;5.50;4.97;;;;;;;18.95;74.14;101265.09;4968536;28;20788;-81
2022/08/25 02:23:17;;;;;;;11.43;6.93;;;;;;;18.93;74.15;101261.63;4995734;28;20476;-80
2022/08/25 02:25:46;;;;;;;5.53;4.78;;;;;;;18.93;74.72;101269.59;4999807;28;20050;-81
2022/08/25 02:28:13;;;;;;;9.32;6.03;;;;;;;18.92;74.73;101265.22;4997923;28;20116;-82
2022/08/25 02:30:42;;;;;;;7.85;5.60;;;;;;;18.89;74.69;101262.63;4999855;28;20060;-81
2022/08/25 02:33:10;;;;;;;7.15;6.47;;;;;;;18.85;75.61;101262.72;5009086;28;20059;-81
2022/08/25 02:35:37;;;;;;;8.13;5.65;;;;;;;18.80;75.67;101267.31;4995802;28;20050;-81
2022/08/25 02:38:05;;;;;;;6.55;5.78;;;;;;;18.79;76.10;101268.25;4997649;28;20124;-81
2022/08/25 02:40:34;;;;;;;8.23;5.93;;;;;;;18.77;76.13;101263.91;4982371;28;20054;-81
2022/08/25 02:43:02;;;;;;;11.27;5.82;;;;;;;18.73;76.75;101263.13;4998968;28;20740;-81
2022/08/25 02:45:30;;;;;;;10.57;6.88;;;;;;;18.72;77.30;101265.84;4984486;28;20042;-81
2022/08/25 02:47:57;;;;;;;7.10;5.72;;;;;;;18.69;78.24;101274.75;4996598;28;20049;-81
2022/08/25 02:50:25;;;;;;;8.18;5.63;;;;;;;18.64;77.98;101263.44;4994412;28;20053;-81
2022/08/25 02:52:51;;;;;;;7.32;6.22;;;;;;;18.62;77.85;101262.66;4982209;28;20049;-79
2022/08/25 02:55:19;;;;;;;10.50;7.30;;;;;;;18.56;78.71;101266.34;4969053;28;20076;-81
2022/08/25 02:57:46;;;;;;;8.50;6.72;;;;;;;18.52;79.76;101265.59;4979900;28;20038;-80
2022/08/25 03:00:16;;;;;;;10.98;6.82;;;;;;;18.51;80.15;101260.31;4984865;28;20061;-81
2022/08/25 03:02:44;;;;;;;7.80;7.00;;;;;;;18.48;79.77;101263.94;5015311;28;20046;-80
2022/08/25 03:05:13;;;;;;;9.13;6.25;;;;;;;18.46;79.67;101262.25;4997194;28;20046;-80
2022/08/25 03:07:40;;;;;;;10.10;7.50;;;;;;;18.40;80.70;101255.38;5009786;28;20069;-79
2022/08/25 03:10:15;;;;;;;13.25;7.07;;;;;;;18.38;80.46;101265.16;5020853;28;20084;-81
2022/08/25 03:12:44;;;;;;;10.60;6.82;;;;;;;18.31;80.80;101258.31;5015055;28;20105;-81
2022/08/25 03:15:15;;;;;;;11.55;6.80;;;;;;;18.26;81.92;101262.91;5008524;28;20049;-82
2022/08/25 03:17:43;;;;;;;9.93;7.18;;;;;;;18.22;81.81;101253.31;4997935;28;20114;-81
2022/08/25 03:20:10;;;;;;;10.55;6.90;;;;;;;18.19;82.01;101259.56;5005102;28;20109;-82
2022/08/25 03:22:36;;;;;;;10.48;7.25;;;;;;;18.17;82.51;101259.63;4990490;28;20061;-80
2022/08/25 03:27:45;;;;;;;14.10;7.07;;;;;;;18.12;83.59;101261.56;5011259;28;20137;-79
2022/08/25 03:30:12;;;;;;;12.07;7.07;;;;;;;18.13;84.09;101259.75;5005053;28;20125;-82
2022/08/25 03:32:39;;;;;;;10.75;7.68;;;;;;;18.13;84.20;101259.75;5023901;28;20045;-83
2022/08/25 03:35:06;;;;;;;11.88;7.28;;;;;;;18.12;84.37;101258.91;5005608;28;20053;-82
2022/08/25 03:37:34;;;;;;;9.95;7.15;;;;;;;18.10;84.30;101254.56;5007474;28;20057;-80
2022/08/25 03:40:03;;;;;;;10.30;7.88;;;;;;;18.07;85.36;101258.19;5003613;28;20050;-81
2022/08/25 03:42:30;;;;;;;8.30;7.25;;;;;;;18.03;85.31;101251.25;5018286;28;20432;-80
2022/08/25 03:44:58;;;;;;;11.55;8.63;;;;;;;18.01;86.82;101255.72;5000867;28;20524;-80
2022/08/25 03:50:08;;;;;;;7.70;6.97;;;;;;;17.98;87.10;101251.38;4999278;28;20053;-81
2022/08/25 03:52:36;;;;;;;9.18;7.55;;;;;;;17.96;87.08;101249.69;4999472;28;20421;-82
2022/08/25 03:55:09;;;;;;;13.80;8.18;;;;;;;17.93;88.33;101253.28;5016203;28;20802;-81
2022/08/25 03:57:37;;;;;;;10.50;7.63;;;;;;;17.90;88.37;101249.81;5015651;28;20042;-80
2022/08/25 04:00:12;;;;;;;9.00;7.97;;;;;;;17.90;89.16;101252.47;4998783;28;20050;-80
2022/08/25 04:02:40;;;;;;;10.60;8.63;;;;;;;17.89;89.64;101248.97;4999119;28;20058;-81
2022/08/25 04:05:09;;;;;;;10.93;8.13;;;;;;;17.88;90.27;101255.16;4982360;28;20495;-81
2022/08/25 04:07:36;;;;;;;13.68;8.55;;;;;;;17.87;90.39;101253.44;4997681;28;20497;-79
2022/08/25 04:10:07;;;;;;;8.82;7.95;;;;;;;17.86;90.51;101260.53;4989619;28;20042;-82
2022/08/25 04:12:35;;;;;;;8.63;7.70;;;;;;;17.84;90.71;101272.06;5004653;28;20045;-80
2022/08/25 04:15:03;;;;;;;10.35;8.15;;;;;;;17.82;90.83;101265.94;5002046;28;20046;-80
2022/08/25 04:17:34;;;;;;;10.70;9.18;;;;;;;17.80;91.34;101258.03;4987349;28;20143;-81
2022/08/25 04:20:07;;;;;;;14.57;10.05;;;;;;;17.81;91.72;101278.31;5021935;28;20817;-81
2022/08/25 04:22:36;;;;;;;13.60;9.00;;;;;;;17.80;91.72;101273.94;4983316;28;20046;-83
2022/08/25 04:25:06;;;;;;;12.05;9.55;;;;;;;17.78;92.27;101266.94;5000813;28;20140;-82
2022/08/25 04:27:33;;;;;;;11.85;9.38;;;;;;;17.76;92.99;101263.50;4991144;28;20049;-81
2022/08/25 04:30:01;;;;;;;12.20;8.70;;;;;;;17.75;92.98;101265.25;5018709;28;21028;-80
2022/08/25 04:32:28;;;;;;;9.38;7.85;;;;;;;17.74;93.39;101260.00;5018818;28;20133;-81
2022/08/25 04:34:57;;;;;;;10.60;8.68;;;;;;;17.72;93.70;101265.34;5006906;28;20046;-82
2022/08/25 04:37:24;;;;;;;15.23;10.27;;;;;;;17.74;94.45;101255.56;5003919;28;20046;-82
2022/08/25 04:39:51;;;;;;;16.67;11.30;;;;;;;17.77;94.78;101252.84;5003555;28;20038;-82
2022/08/25 04:42:20;;;;;;;17.42;9.55;;;;;;;17.79;94.33;101255.44;5018473;28;20659;-81
2022/08/25 04:44:47;;;;;;;15.05;8.93;;;;;;;17.79;94.74;101255.44;5018120;28;20037;-82
2022/08/25 04:47:14;;;;;;;17.60;10.55;;;;;;;17.78;95.33;101249.31;4988030;28;20069;-81
2022/08/25 04:49:40;;;;;;;14.60;9.82;;;;;;;17.80;95.48;101251.91;5000685;28;20439;-80
2022/08/25 04:52:08;;;;;;;19.00;9.75;;;;;;;17.82;95.89;101244.75;5002806;28;20049;-82
2022/08/25 04:54:36;;;;;;;12.75;10.10;;;;;;;17.82;96.10;101250.06;5005704;28;20054;-79
2022/08/25 04:57:02;;;;;;;14.50;10.48;;;;;;;17.82;95.90;101244.75;4990527;28;20038;-80
2022/08/25 04:59:29;;;;;;;15.10;10.93;;;;;;;17.83;96.48;101255.31;5006088;28;20041;-81
2022/08/25 05:01:56;;;;;;;13.77;11.05;;;;;;;17.82;96.94;101248.28;5012617;28;20056;-81
2022/08/25 05:04:22;;;;;;;18.60;11.45;;;;;;;17.84;98.13;101258.81;4988551;28;20122;-82
2022/08/25 05:06:50;;;;;;;12.15;10.25;;;;;;;17.83;97.67;101257.97;4989921;28;20077;-80
2022/08/25 05:09:16;;;;;;;12.65;10.02;;;;;;;17.86;97.25;101257.88;5004668;28;20132;-81
2022/08/25 05:11:43;;;;;;;17.10;11.35;;;;;;;17.92;97.16;101261.25;4987256;28;20106;-82
2022/08/25 05:14:12;;;;;;;17.10;10.63;;;;;;;17.96;97.78;101257.63;4974047;28;20057;-81
2022/08/25 05:16:40;;;;;;;15.32;12.32;;;;;;;17.96;97.67;101260.28;5000614;28;20054;-82
2022/08/25 05:19:07;;;;;;;18.55;12.73;;;;;;;17.97;98.47;101257.56;5017206;28;20096;-80
2022/08/25 05:21:34;;;;;;;21.08;10.85;;;;;;;18.00;98.29;101265.44;4998909;28;20160;-81
2022/08/25 05:24:02;;;;;;;18.52;11.68;;;;;;;18.04;98.12;101263.53;4980050;28;20050;-81
2022/08/25 05:26:32;;;;;;;13.35;10.27;;;;;;;18.06;97.85;101268.81;5001792;28;20037;-80
2022/08/25 05:29:03;;;;;;;15.15;11.23;;;;;;;18.09;98.24;101266.06;5019713;28;20034;-81
2022/08/25 05:31:32;;;;;;;16.55;10.93;;;;;;;18.12;98.02;101265.97;5010080;28;20496;-80
2022/08/25 05:34:01;;;;;;;18.02;12.07;;;;;;;18.12;98.22;101261.56;5006467;28;20049;-81
2022/08/25 05:36:28;;;;;;;17.13;12.68;;;;;;;18.15;98.23;101257.94;5001219;28;20693;-82
2022/08/25 05:38:56;;;;;;;16.35;12.30;;;;;;;18.15;98.30;101250.84;5005246;28;20054;-81
2022/08/25 05:41:29;;;;;;;13.05;10.98;;;;;;;18.20;98.03;101248.06;5005710;28;20439;-82
2022/08/25 05:43:56;;;;;;;16.95;11.30;;;;;;;18.26;97.67;101254.94;5027331;28;20129;-82
2022/08/25 05:46:25;;;;;;;13.60;11.77;;;;;;;18.29;97.72;101247.78;5011427;28;20336;-82
2022/08/25 05:48:52;;;;;;;18.40;13.10;;;;;;;18.35;97.52;101239.63;4991946;28;20062;-80
2022/08/25 05:51:19;;;;;;;17.55;12.00;;;;;;;18.41;97.20;101248.28;4995736;28;20050;-83
2022/08/25 05:53:50;;;;;;;20.40;12.95;;;;;;;18.45;97.34;101245.50;5017459;28;20421;-80
2022/08/25 05:56:19;;;;;;;19.20;12.98;;;;;;;18.46;97.18;101249.88;5016112;28;20136;-83
2022/08/25 05:58:46;;;;;;;16.20;11.55;;;;;;;18.49;96.92;101241.81;5013754;28;20057;-83
2022/08/25 06:04:10;;;;;;;18.70;10.77;;;;;;;18.64;96.33;101250.19;5012340;28;20064;-82
2022/08/25 06:06:39;;;;;;;16.17;11.30;;;;;;;18.72;96.29;101239.31;5002115;28;20132;-82
2022/08/25 06:09:07;;;;;;;15.02;10.95;;;;;;;18.74;95.87;101238.34;5010665;28;20056;-80
2022/08/25 06:11:38;;;;;;;14.15;12.02;;;;;;;18.79;95.72;101238.22;5028546;28;20096;-80
2022/08/25 06:14:05;;;;;;;15.88;11.23;;;;;;;18.85;95.56;101235.31;5038656;28;20124;-82
2022/08/25 06:16:32;;;;;;;15.02;10.77;;;;;;;18.93;95.11;101225.38;5022683;28;20141;-83
2022/08/25 06:18:59;;;;;;;16.48;12.30;;;;;;;18.99;95.66;101235.78;5023326;28;20097;-81
2022/08/25 06:21:26;;;;;;;20.17;12.95;;;;;;;19.03;95.23;101231.19;5008831;28;20101;-81
2022/08/25 06:23:55;;;;;;;17.55;12.77;;;;;;;19.08;95.63;101239.00;5009163;28;20215;-82
2022/08/25 06:26:22;;;;;;;14.88;12.27;;;;;;;19.16;95.32;101240.47;4990183;28;20054;-83
2022/08/25 06:28:50;;;;;;;18.00;12.95;;;;;;;19.28;94.29;101247.13;5006021;28;20050;-83
2022/08/25 06:31:17;;;;;;;15.52;11.95;;;;;;;19.28;94.41;101246.25;4991312;28;20046;-81
2022/08/25 06:33:44;;;;;;;15.73;12.30;;;;;;;19.36;93.91;101251.28;5011510;28;20073;-81
2022/08/25 06:36:13;;;;;;;17.48;12.70;;;;;;;19.44;93.38;101243.94;5022279;28;20104;-81
2022/08/25 06:38:41;;;;;;;18.80;13.43;;;;;;;19.57;92.88;101242.56;5013579;28;20060;-82
2022/08/25 06:41:11;;;;;;;17.73;11.95;;;;;;;19.70;92.07;101242.06;5003839;28;20054;-80
2022/08/25 06:43:39;;;;;;;14.43;11.93;;;;;;;19.94;90.35;101243.81;5038697;28;20050;-81
2022/08/25 06:46:20;;;;;;;17.13;12.57;;;;;;;20.25;88.08;101239.09;5014672;28;20046;-81
2022/08/25 06:48:47;;;;;;;16.27;12.73;;;;;;;20.49;86.41;101240.78;5030447;28;20046;-81
2022/08/25 06:51:28;;;;;;;24.83;12.23;;;;;;;20.79;85.18;101236.91;5027838;28;20133;-82
2022/08/25 06:53:56;;;;;;;15.63;11.52;;;;;;;21.12;83.19;101231.94;5012022;28;20116;-82
2022/08/25 06:56:25;;;;;;;13.20;11.27;;;;;;;21.48;81.17;101228.56;4990346;28;20044;-82
2022/08/25 06:59:06;;;;;;;13.10;11.60;;;;;;;21.96;77.45;101217.50;5008682;28;20030;-81
2022/08/25 07:01:33;;;;;;;13.75;11.32;;;;;;;22.21;76.60;101218.97;4995762;28;20041;-83
2022/08/25 07:04:04;;;;;;;13.48;11.45;;;;;;;22.50;75.22;101227.38;4990418;28;20042;-83
2022/08/25 07:06:35;;;;;;;11.27;9.80;;;;;;;22.89;74.00;101227.16;5006589;28;20050;-82
2022/08/25 07:09:06;;;;;;;16.60;11.63;;;;;;;23.16;71.86;101228.50;4985666;28;20125;-82
2022/08/25 07:11:34;;;;;;;14.65;11.20;;;;;;;23.46;69.25;101223.31;5004051;28;20438;-82
2022/08/25 07:14:07;;;;;;;14.25;10.82;;;;;;;23.71;68.58;101212.13;5020225;28;20588;-83
2022/08/25 07:16:38;;;;;;;21.05;10.70;;;;;;;24.16;66.95;101212.34;5000513;28;20042;-81
2022/08/25 07:19:06;;;;;;;11.73;9.48;;;;;;;24.69;66.08;101212.00;5004110;28;20078;-83
2022/08/25 07:21:38;;;;;;;12.20;10.07;;;;;;;25.04;62.78;101217.03;4991362;28;20045;-81
2022/08/25 07:24:10;;;;;;;12.15;10.13;;;;;;;25.15;63.03;101216.38;4980184;28;20061;-83
2022/08/25 07:26:39;;;;;;;9.60;8.57;;;;;;;25.65;61.46;101216.88;4989735;28;20161;-82
2022/08/25 07:29:16;;;;;;;12.52;9.35;;;;;;;25.84;60.05;101213.88;5005723;28;20144;-81
2022/08/25 07:31:43;;;;;;;14.23;10.80;;;;;;;26.01;59.20;101204.72;4990446;28;20049;-81
2022/08/25 07:36:57;;;;;;;11.18;9.27;;;;;;;26.55;56.46;101226.19;5000473;28;21022;-82
2022/08/25 07:39:29;;;;;;;10.57;8.60;;;;;;;26.86;55.99;101213.41;4986674;28;20049;-81
2022/08/25 07:42:01;;;;;;;11.30;10.20;;;;;;;27.03;55.23;101219.44;5003268;28;20112;-83
2022/08/25 07:44:31;;;;;;;14.93;9.73;;;;;;;27.27;54.75;101224.06;4999636;28;20034;-83
2022/08/25 07:46:58;;;;;;;10.80;9.25;;;;;;;27.61;53.42;101227.06;4995199;28;20062;-83
2022/08/25 07:49:28;;;;;;;16.17;10.40;;;;;;;27.79;52.49;101222.16;5017004;28;20117;-81
2022/08/25 07:51:58;;;;;;;11.85;9.05;;;;;;;27.93;52.95;101221.16;5008082;28;20076;-81
2022/08/25 07:54:28;;;;;;;10.02;7.57;;;;;;;28.53;51.29;101227.47;5033649;28;20073;-80
2022/08/25 07:56:55;;;;;;;14.50;8.80;;;;;;;29.02;49.56;101231.81;5025641;28;20056;-83
2022/08/25 07:59:23;;;;;;;10.05;8.02;;;;;;;29.25;47.94;101230.97;5000465;28;20049;-83
2022/08/25 08:01:50;;;;;;;9.27;8.00;;;;;;;29.20;49.09;101234.03;5015790;28;20081;-83
2022/08/25 08:04:18;;;;;;;15.23;8.13;;;;;;;29.52;48.34;101231.50;5009064;28;20047;-80
2022/08/25 08:06:46;;;;;;;13.18;8.30;;;;;;;29.90;46.94;101236.66;4995749;28;20871;-82
2022/08/25 08:09:14;;;;;;;13.00;10.10;;;;;;;29.73;47.14;101233.44;4984028;28;20062;-80
2022/08/25 08:11:45;;;;;;;10.02;9.00;;;;;;;30.18;46.52;101225.28;4996097;28;20050;-82
2022/08/25 08:14:15;;;;;;;13.10;7.85;;;;;;;30.44;45.73;101222.22;4999398;28;20745;-82
2022/08/25 08:16:42;;;;;;;11.68;8.55;;;;;;;30.99;44.48;101218.53;4996451;28;20099;-83
2022/08/25 08:19:09;;;;;;;13.40;9.43;;;;;;;31.39;43.29;101215.00;4995679;28;20049;-82
2022/08/25 08:21:36;;;;;;;8.55;7.55;;;;;;;31.33;43.48;101211.00;5000486;28;20073;-83
2022/08/25 08:24:04;;;;;;;13.43;9.35;;;;;;;31.43;43.10;101219.19;5000289;28;20038;-83
2022/08/25 08:26:34;;;;;;;11.35;8.65;;;;;;;31.36;43.71;101215.28;4986178;28;20058;-83
2022/08/25 08:29:06;;;;;;;10.48;8.88;;;;;;;31.88;42.26;101219.78;5003380;28;20045;-82
2022/08/25 08:31:33;;;;;;;;;;;;;;;31.69;42.11;101213.28;5013300;28;20120;-83
2022/08/25 08:34:01;;;;;;;13.65;8.52;;;;;;;32.01;41.99;101214.94;5002251;28;20016;-84
2022/08/25 08:36:32;;;;;;;15.98;9.23;;;;;;;31.98;42.18;101207.94;4976334;28;20103;-84
2022/08/25 08:39:02;;;;;;;14.68;9.73;;;;;;;32.43;41.56;101206.56;4984306;28;20052;-82
2022/08/25 08:44:45;;;;;;;11.60;9.00;;;;;;;33.22;39.51;101214.53;4991028;28;20042;-84
2022/08/25 08:47:40;;;;;;;13.20;8.80;;;;;;;33.75;38.90;101204.88;5003745;28;20141;-84
2022/08/25 08:50:34;;;;;;;12.43;8.98;;;;;;;33.45;39.06;101193.34;4991957;28;20758;-84
2022/08/25 08:53:09;;;;;;;12.77;9.57;;;;;;;33.60;39.01;101194.53;5023514;28;20046;-84
2022/08/25 08:55:43;;;;;;;14.40;9.18;;;;;;;34.04;37.83;101191.16;5006124;28;20056;-84
2022/08/25 08:58:20;;;;;;;14.50;8.43;;;;;;;34.65;36.88;101185.03;5017946;28;20060;-85
2022/08/25 09:00:53;;;;;;;14.77;8.10;;;;;;;34.51;37.00;101189.19;5002592;28;20038;-84
2022/08/25 09:03:48;;;;;;;13.18;7.95;;;;;;;34.41;36.45;101189.28;5005733;28;20047;-84
2022/08/25 09:06:33;;;;;;;9.52;8.05;;;;;;;33.79;38.16;101193.63;5016247;28;20083;-83
2022/08/25 09:09:05;;;;;;;11.43;8.73;;;;;;;34.57;36.81;101186.69;4995287;28;20045;-84
2022/08/25 09:12:42;;;;;;;10.07;8.80;;;;;;;34.28;37.06;101181.50;5029368;28;20068;-85
2022/08/25 09:18:57;;;;;;;10.70;7.78;;;;;;;34.29;37.26;101172.34;4996484;28;20038;-85
2022/08/25 09:22:04;;;;;;;9.30;8.30;;;;;;;34.08;37.62;101167.22;5016491;28;20073;-85
2022/08/25 09:24:53;;;;;;;12.55;8.60;;;;;;;34.09;37.52;101167.09;4998940;28;20060;-85
2022/08/25 09:27:59;;;;;;;8.88;8.00;;;;;;;32.46;40.71;101173.78;5018648;28;20303;-84
2022/08/25 09:30:50;;;;;;;10.57;9.02;;;;;;;32.18;41.33;101164.66;5033974;28;20040;-85
2022/08/25 09:33:25;;;;;;;15.20;9.00;;;;;;;31.87;41.17;101172.88;5031576;28;20050;-83
2022/08/25 09:35:57;;;;;;;12.45;8.43;;;;;;;31.50;42.17;101170.78;4990591;28;20120;-83
2022/08/25 09:38:30;;;;;;;14.68;9.48;;;;;;;31.46;42.37;101169.31;5025225;28;20606;-83
2022/08/25 09:41:02;;;;;;;8.88;7.88;;;;;;;32.91;40.01;101166.84;5028330;28;20042;-83
2022/08/25 09:43:34;;;;;;;11.48;8.25;;;;;;;34.20;37.34;101157.84;5011649;28;20041;-84
2022/08/25 09:46:10;;;;;;;9.48;7.82;;;;;;;33.46;38.10;101157.91;5028799;28;20069;-85
2022/08/25 09:49:18;;;;;;;6.45;5.78;;;;;;;33.36;38.01;101161.69;5025064;28;20030;-83
2022/08/25 09:51:53;;;;;;;12.35;6.75;;;;;;;33.28;38.21;101155.16;5044491;28;20042;-84
2022/08/25 09:54:26;;;;;;;13.73;6.55;;;;;;;32.68;39.18;101150.03;5031752;28;20026;-84
2022/08/25 09:57:00;;;;;;;8.73;7.32;;;;;;;32.86;38.69;101142.03;5018911;28;20054;-85
2022/08/25 09:59:50;;;;;;;12.82;7.70;;;;;;;33.16;38.34;101140.06;5024911;28;20045;-83
2022/08/25 10:02:29;;;;;;;10.18;7.15;;;;;;;34.04;37.32;101135.94;4999238;28;20070;-83
2022/08/25 10:05:20;;;;;;;10.88;7.30;;;;;;;33.67;37.32;101148.63;5020680;28;20058;-84
2022/08/25 10:08:04;;;;;;;12.25;7.03;;;;;;;33.18;37.99;101146.19;5004408;28;20131;-85
2022/08/25 10:10:48;;;;;;;7.00;6.30;;;;;;;32.29;39.62;101134.72;4999652;28;20072;-84
2022/08/25 10:13:27;;;;;;;9.63;7.10;;;;;;;31.60;40.89;101133.78;5005387;28;20049;-82
2022/08/25 10:16:24;;;;;;;10.57;8.00;;;;;;;31.42;41.40;101140.84;5012017;28;20069;-82
2022/08/25 10:19:31;;;;;;;8.77;7.25;;;;;;;32.60;39.35;101126.38;5013017;28;20042;-84
2022/08/25 10:22:34;;;;;;;12.05;7.03;;;;;;;34.28;36.20;101127.16;4995758;28;20046;-84
2022/08/25 10:25:11;;;;;;;9.38;6.65;;;;;;;35.38;34.84;101119.31;5002387;28;20572;-84
2022/08/25 10:28:22;;;;;;;10.52;6.28;;;;;;;37.10;32.08;101113.13;4986293;28;20042;-83
2022/08/25 10:31:13;;;;;;;7.60;6.80;;;;;;;36.73;32.05;101118.19;4987041;28;20153;-84
2022/08/25 10:34:26;;;;;;;13.20;6.80;;;;;;;37.12;31.32;101113.78;4989550;28;20149;-84
2022/08/25 10:37:17;;;;;;;6.90;6.28;;;;;;;35.95;32.91;101098.66;4986137;28;20050;-85
2022/08/25 10:40:16;;;;;;;8.40;5.80;;;;;;;35.25;34.18;101086.25;5000436;28;20053;-84
2022/08/25 10:43:30;;;;;;;9.52;6.13;;;;;;;35.86;33.21;101080.63;4998889;28;20057;-84
2022/08/25 10:46:14;;;;;;;10.32;7.10;;;;;;;37.18;31.43;101074.88;4988791;28;20054;-83
2022/08/25 10:49:01;;;;;;;13.20;7.05;;;;;;;37.68;30.80;101069.94;5004232;28;20054;-83
2022/08/25 10:51:41;;;;;;;6.60;6.00;;;;;;;36.18;32.44;101070.72;5000354;28;20049;-84
2022/08/25 10:54:35;;;;;;;8.20;6.00;;;;;;;36.75;31.20;101067.03;4982700;28;20096;-84
2022/08/25 10:57:49;;;;;;;11.32;6.53;;;;;;;37.74;30.15;101066.50;4985301;28;20140;-83
2022/08/25 11:00:28;;;;;;;7.75;6.93;;;;;;;36.84;31.41;101059.69;5013063;28;20092;-84
2022/08/25 11:03:22;;;;;;;6.40;5.82;;;;;;;37.53;31.04;101056.25;4993808;28;20044;-84
2022/08/25 11:07:22;;;;;;;9.57;6.93;;;;;;;37.76;30.45;101052.66;5009404;28;20083;-85
2022/08/25 11:09:53;;;;;;;9.63;7.22;;;;;;;37.32;30.83;101033.19;5003310;28;20050;-84
2022/08/25 11:12:35;;;;;;;;;;;;;;;35.99;32.59;101052.88;4991114;28;20046;-85
2022/08/25 11:15:12;;;;;;;11.20;8.15;;;;;;;33.39;36.98;101037.41;4988554;28;19925;-84
2022/08/25 11:18:15;;;;;;;8.57;7.68;;;;;;;32.62;37.99;101048.50;5008372;28;20121;-82
2022/08/25 11:21:16;;;;;;;11.95;8.23;;;;;;;31.67;39.96;101045.66;5018694;28;20765;-83
2022/08/25 11:24:35;;;;;;;9.05;7.80;;;;;;;32.51;39.15;101034.28;5023422;28;20050;-84
2022/08/25 11:27:06;;;;;;;14.48;8.50;;;;;;;34.23;35.68;101023.53;4955945;28;20075;-85
2022/08/25 11:29:38;;;;;;;8.73;7.35;;;;;;;34.44;35.18;101018.56;4969438;28;20098;-83
2022/08/25 11:32:11;;;;;;;9.27;7.65;;;;;;;34.46;35.30;101013.00;5015455;28;20073;-83
2022/08/25 11:34:49;;;;;;;11.57;7.35;;;;;;;34.92;34.79;101018.97;5013697;28;20034;-84
2022/08/25 11:37:36;;;;;;;8.48;7.70;;;;;;;36.14;32.57;101010.28;5006348;28;20042;-84
2022/08/25 11:40:51;;;;;;;9.27;7.18;;;;;;;36.74;31.33;101006.19;5011321;28;20100;-82
2022/08/25 11:43:58;;;;;;;11.50;7.35;;;;;;;36.87;30.51;101008.38;5008571;28;20039;-84
2022/08/25 11:47:10;;;;;;;7.82;6.80;;;;;;;37.67;29.91;101019.94;5007333;28;20050;-84
2022/08/25 11:50:05;;;;;;;8.57;6.75;;;;;;;37.73;29.18;101015.63;4982731;28;20053;-84
2022/08/25 11:52:35;;;;;;;6.97;6.30;;;;;;;35.38;32.97;101004.16;5006611;28;20054;-83
2022/08/25 11:55:28;;;;;;;7.25;6.38;;;;;;;35.40;32.65;101005.69;5009974;28;20043;-84
2022/08/25 11:58:34;;;;;;;10.07;6.65;;;;;;;34.91;33.55;101000.94;5028198;28;20056;-84
2022/08/25 12:01:04;;;;;;;10.18;6.50;;;;;;;34.84;33.82;100991.78;5005000;28;20050;-83
2022/08/25 12:03:34;;;;;;;10.63;6.95;;;;;;;34.74;34.32;100991.03;5005337;28;20053;-84
2022/08/25 12:06:15;;;;;;;8.45;6.13;;;;;;;34.89;33.56;100986.69;5004355;28;20042;-84
2022/08/25 12:09:01;;;;;;;9.32;6.32;;;;;;;35.37;32.96;100989.72;5005821;28;20057;-84
2022/08/25 12:11:53;;;;;;;11.13;6.43;;;;;;;36.37;31.64;100995.94;5006530;28;20041;-84